createdAt,value
2018-07-03T00:00:58.025Z,54.90
2018-07-03T00:03:27.717Z,55.40
2018-07-03T00:05:57.414Z,56.00
2018-07-03T00:08:27.747Z,56.10
2018-07-03T00:10:57.454Z,56.50
2018-07-03T00:13:27.110Z,56.60
2018-07-03T00:15:57.179Z,56.90
2018-07-03T00:18:26.859Z,57.00
2018-07-03T00:20:56.551Z,57.00
2018-07-03T00:23:26.214Z,57.60
2018-07-03T00:25:56.835Z,57.20
2018-07-03T00:28:26.522Z,57.30
2018-07-03T00:30:56.192Z,57.30
2018-07-03T00:33:26.279Z,57.30
2018-07-03T00:35:55.963Z,57.50
2018-07-03T00:38:25.631Z,57.50
2018-07-03T00:40:55.307Z,57.30
2018-07-03T00:43:25.074Z,57.50
2018-07-03T00:45:54.778Z,57.50
2018-07-03T00:48:24.470Z,57.30
2018-07-03T00:50:54.155Z,57.30
2018-07-03T00:53:23.843Z,57.50
2018-07-03T00:58:22.879Z,56.80
2018-07-03T01:00:52.552Z,56.40
2018-07-03T01:03:22.218Z,56.40
2018-07-03T01:05:51.927Z,56.50
2018-07-03T01:08:21.578Z,56.80
2018-07-03T01:10:51.298Z,56.20
2018-07-03T01:13:20.982Z,56.50
2018-07-03T01:15:50.682Z,56.90
2018-07-03T01:18:20.699Z,57.20
2018-07-03T01:20:50.391Z,56.90
2018-07-03T01:23:20.050Z,56.90
2018-07-03T01:25:49.726Z,57.20
2018-07-03T01:28:19.415Z,57.40
2018-07-03T01:30:49.075Z,57.30
2018-07-03T01:33:18.787Z,57.80
2018-07-03T01:35:48.467Z,58.00
2018-07-03T01:38:18.162Z,57.50
2018-07-03T01:40:47.859Z,57.20
2018-07-03T01:43:17.591Z,57.20
2018-07-03T01:45:53.006Z,57.30
2018-07-03T01:48:22.683Z,57.30
2018-07-03T01:50:52.614Z,57.40
2018-07-03T01:53:22.306Z,57.80
2018-07-03T01:55:51.977Z,58.60
2018-07-03T01:58:21.686Z,58.20
2018-07-03T02:00:51.348Z,57.50
2018-07-03T02:03:21.102Z,57.50
2018-07-03T02:05:50.843Z,57.50
2018-07-03T02:08:22.141Z,57.70
2018-07-03T02:10:52.551Z,57.60
2018-07-03T02:13:23.295Z,58.00
2018-07-03T02:15:53.094Z,58.10
2018-07-03T02:18:22.823Z,58.30
2018-07-03T02:20:52.514Z,58.30
2018-07-03T02:23:22.222Z,58.60
2018-07-03T02:25:52.011Z,58.80
2018-07-03T02:28:21.743Z,59.40
2018-07-03T02:30:51.794Z,59.50
2018-07-03T02:33:21.539Z,59.40
2018-07-03T02:35:51.606Z,59.70
2018-07-03T02:38:21.327Z,60.00
2018-07-03T02:40:51.010Z,59.00
2018-07-03T02:43:20.748Z,59.10
2018-07-03T02:45:50.426Z,59.50
2018-07-03T02:48:20.143Z,59.90
2018-07-03T02:50:49.857Z,59.80
2018-07-03T02:53:19.584Z,60.00
2018-07-03T02:55:49.263Z,60.10
2018-07-03T02:58:18.967Z,60.90
2018-07-03T03:00:48.752Z,60.50
2018-07-03T03:03:18.499Z,60.10
2018-07-03T03:05:48.197Z,60.40
2018-07-03T03:08:17.907Z,60.80
2018-07-03T03:10:47.803Z,60.60
2018-07-03T03:13:17.567Z,61.10
2018-07-03T03:15:47.269Z,60.60
2018-07-03T03:18:17.010Z,60.70
2018-07-03T03:20:46.703Z,60.60
2018-07-03T03:23:16.434Z,60.40
2018-07-03T03:25:46.354Z,60.70
2018-07-03T03:28:16.056Z,61.10
2018-07-03T03:30:45.768Z,61.50
2018-07-03T03:33:15.444Z,61.10
2018-07-03T03:35:45.519Z,61.80
2018-07-03T03:38:15.219Z,61.70
2018-07-03T03:40:44.937Z,61.90
2018-07-03T03:43:14.626Z,62.30
2018-07-03T03:45:50.059Z,62.00
2018-07-03T03:48:19.756Z,61.70
2018-07-03T03:50:49.475Z,62.30
2018-07-03T03:53:19.198Z,62.20
2018-07-03T03:55:48.907Z,62.60
2018-07-03T03:58:18.603Z,62.90
2018-07-03T04:00:48.356Z,62.30
2018-07-03T04:03:18.290Z,61.60
2018-07-03T04:05:48.009Z,62.40
2018-07-03T04:08:17.705Z,61.70
2018-07-03T04:10:47.427Z,61.70
2018-07-03T04:13:17.120Z,61.50
2018-07-03T04:15:46.848Z,62.00
2018-07-03T04:18:35.539Z,62.30
2018-07-03T04:21:06.614Z,62.90
2018-07-03T04:23:37.226Z,63.40
2018-07-03T04:26:07.009Z,63.60
2018-07-03T04:28:42.649Z,63.00
2018-07-03T04:31:12.374Z,63.60
2018-07-03T04:33:42.423Z,63.40
2018-07-03T04:36:12.181Z,64.30
2018-07-03T04:38:41.891Z,65.60
2018-07-03T04:41:11.623Z,64.40
2018-07-03T04:43:41.310Z,64.30
2018-07-03T04:46:11.092Z,64.50
2018-07-03T04:48:40.783Z,64.90
2018-07-03T04:51:10.553Z,64.20
2018-07-03T04:53:40.278Z,65.00
2018-07-03T04:56:09.982Z,66.10
2018-07-03T04:58:39.697Z,65.60
2018-07-03T05:01:09.399Z,66.20
2018-07-03T05:03:39.118Z,65.60
2018-07-03T05:06:08.857Z,66.60
2018-07-03T05:08:38.581Z,64.40
2018-07-03T05:11:08.262Z,64.30
2018-07-03T05:13:38.371Z,64.50
2018-07-03T05:16:08.450Z,64.60
2018-07-03T05:18:38.262Z,64.20
2018-07-03T05:21:07.967Z,63.40
2018-07-03T05:23:37.695Z,61.90
2018-07-03T05:26:07.415Z,62.10
2018-07-03T05:28:37.137Z,61.20
2018-07-03T05:31:06.879Z,61.20
2018-07-03T05:33:36.655Z,60.60
2018-07-03T05:36:06.378Z,61.00
2018-07-03T05:38:36.131Z,62.70
2018-07-03T05:41:06.319Z,60.30
2018-07-03T05:43:36.010Z,61.40
2018-07-03T05:46:06.191Z,59.40
2018-07-03T05:48:35.923Z,58.70
2018-07-03T05:51:05.674Z,58.50
2018-07-03T05:53:35.385Z,57.70
2018-07-03T05:56:05.132Z,55.80
2018-07-03T05:58:34.965Z,54.00
2018-07-03T06:01:04.711Z,53.20
2018-07-03T06:03:34.394Z,52.70
2018-07-03T06:06:04.456Z,52.50
2018-07-03T06:08:34.095Z,52.00
2018-07-03T06:11:03.834Z,48.70
2018-07-03T06:13:33.479Z,48.00
2018-07-03T06:16:03.189Z,48.70
2018-07-03T06:18:32.850Z,49.50
2018-07-03T06:21:02.915Z,48.00
2018-07-03T06:23:32.653Z,47.30
2018-07-03T06:26:02.378Z,46.30
2018-07-03T06:28:32.052Z,45.50
2018-07-03T06:31:01.710Z,46.40
2018-07-03T06:33:31.363Z,45.60
2018-07-03T06:36:01.052Z,45.00
2018-07-03T06:38:30.714Z,44.10
2018-07-03T06:41:00.456Z,42.60
2018-07-03T06:43:30.280Z,43.20
2018-07-03T06:45:59.954Z,43.40
2018-07-03T06:48:29.627Z,42.60
2018-07-03T06:50:59.311Z,41.40
2018-07-03T06:53:29.034Z,41.30
2018-07-03T06:55:58.718Z,42.00
2018-07-03T06:58:28.399Z,39.10
2018-07-03T07:00:58.099Z,37.40
2018-07-03T07:03:27.780Z,38.00
2018-07-03T07:05:57.463Z,36.50
2018-07-03T07:08:27.138Z,39.20
2018-07-03T07:10:57.011Z,38.10
2018-07-03T07:13:26.682Z,37.90
2018-07-03T07:15:56.141Z,34.90
2018-07-03T07:18:25.823Z,34.50
2018-07-03T07:20:55.730Z,33.60
2018-07-03T07:23:25.391Z,34.20
2018-07-03T07:25:55.070Z,31.00
2018-07-03T07:28:24.738Z,32.30
2018-07-03T07:30:54.419Z,32.30
2018-07-03T07:33:24.073Z,33.30
2018-07-03T07:35:53.773Z,31.60
2018-07-03T07:38:23.619Z,31.50
2018-07-03T07:40:53.659Z,32.50
2018-07-03T07:43:23.306Z,33.80
2018-07-03T07:45:58.454Z,31.70
2018-07-03T07:48:28.111Z,31.60
2018-07-03T07:50:58.143Z,30.70
2018-07-03T07:53:27.814Z,30.60
2018-07-03T07:55:57.487Z,30.30
2018-07-03T07:58:27.520Z,29.60
2018-07-03T08:00:57.194Z,31.40
2018-07-03T08:03:26.855Z,33.80
2018-07-03T08:05:56.546Z,31.20
2018-07-03T08:08:25.943Z,29.00
2018-07-03T08:10:55.335Z,28.60
2018-07-03T08:13:25.039Z,27.20
2018-07-03T08:15:54.891Z,28.40
2018-07-03T08:18:24.576Z,27.50
2018-07-03T08:20:54.247Z,28.70
2018-07-03T08:23:23.938Z,27.20
2018-07-03T08:25:53.695Z,27.20
2018-07-03T08:28:23.367Z,26.40
2018-07-03T08:30:53.047Z,26.50
2018-07-03T08:33:22.743Z,26.70
2018-07-03T08:38:21.705Z,27.10
2018-07-03T08:40:51.370Z,27.80
2018-07-03T08:43:21.048Z,26.40
2018-07-03T08:45:56.378Z,26.30
2018-07-03T08:48:26.073Z,27.20
2018-07-03T08:50:55.954Z,27.20
2018-07-03T08:53:25.661Z,27.30
2018-07-03T08:55:55.060Z,28.10
2018-07-03T08:58:24.771Z,27.10
2018-07-03T09:00:54.183Z,27.40
2018-07-03T09:03:23.937Z,27.70
2018-07-03T09:05:53.629Z,27.00
2018-07-03T09:08:23.308Z,27.00
2018-07-03T09:10:53.177Z,27.40
2018-07-03T09:13:23.069Z,28.20
2018-07-03T09:15:52.746Z,30.40
2018-07-03T09:18:22.440Z,28.30
2018-07-03T09:20:52.114Z,27.90
2018-07-03T09:23:21.794Z,27.70
2018-07-03T09:25:51.505Z,27.20
2018-07-03T09:28:21.246Z,27.20
2018-07-03T09:30:50.909Z,27.00
2018-07-03T09:33:21.295Z,28.00
2018-07-03T09:35:51.483Z,28.10
2018-07-03T09:38:21.010Z,29.70
2018-07-03T09:40:51.423Z,28.70
2018-07-03T09:43:21.790Z,28.40
2018-07-03T09:45:57.646Z,27.90
2018-07-03T09:48:27.323Z,29.30
2018-07-03T09:50:56.675Z,27.90
2018-07-03T09:53:26.436Z,28.60
2018-07-03T09:55:55.864Z,28.40
2018-07-03T09:58:25.860Z,27.80
2018-07-03T10:00:56.596Z,28.80
2018-07-03T10:03:28.870Z,28.80
2018-07-03T10:05:58.978Z,28.80
2018-07-03T10:08:29.732Z,28.20
2018-07-03T10:10:59.480Z,29.30
2018-07-03T10:13:29.221Z,29.00
2018-07-03T10:15:58.908Z,28.50
2018-07-03T10:18:28.640Z,29.40
2018-07-03T10:20:58.627Z,29.40
2018-07-03T10:23:28.349Z,29.40
2018-07-03T10:25:58.047Z,29.40
2018-07-03T10:28:27.807Z,29.10
2018-07-03T10:30:57.518Z,31.10
2018-07-03T10:33:26.978Z,31.10
2018-07-03T10:35:56.698Z,30.20
2018-07-03T10:38:26.424Z,30.80
2018-07-03T10:40:56.148Z,30.90
2018-07-03T10:43:25.567Z,29.90
2018-07-03T10:46:01.186Z,30.00
2018-07-03T10:51:00.411Z,31.70
2018-07-03T10:53:30.267Z,30.90
2018-07-03T10:56:00.349Z,31.50
2018-07-03T10:58:30.043Z,32.10
2018-07-03T11:00:59.915Z,32.00
2018-07-03T11:03:29.646Z,31.70
2018-07-03T11:05:59.763Z,31.40
2018-07-03T11:08:30.153Z,31.70
2018-07-03T11:11:00.026Z,31.10
2018-07-03T11:13:29.715Z,31.40
2018-07-03T11:15:59.391Z,31.10
2018-07-03T11:18:28.791Z,31.90
2018-07-03T11:21:05.287Z,32.20
2018-07-03T11:23:34.959Z,32.10
2018-07-03T11:26:05.843Z,30.30
2018-07-03T11:28:37.187Z,31.80
2018-07-03T11:31:07.754Z,30.90
2018-07-03T11:33:37.521Z,32.90
2018-07-03T11:36:10.627Z,33.10
2018-07-03T11:38:40.021Z,30.80
2018-07-03T11:41:14.366Z,32.70
2018-07-03T11:43:44.066Z,31.60
2018-07-03T11:46:14.098Z,32.10
2018-07-03T11:48:46.214Z,31.80
2018-07-03T11:51:15.915Z,30.80
2018-07-03T11:53:46.116Z,32.10
2018-07-03T11:56:16.200Z,32.20
2018-07-03T11:58:45.950Z,31.60
2018-07-03T12:03:44.764Z,31.60
2018-07-03T12:06:21.616Z,32.90
2018-07-03T12:08:51.055Z,31.50
2018-07-03T12:11:20.793Z,31.20
2018-07-03T12:13:50.478Z,31.10
2018-07-03T12:16:20.207Z,31.90
2018-07-03T12:18:55.347Z,32.30
2018-07-03T12:21:25.110Z,32.20
2018-07-03T12:23:54.792Z,33.10
2018-07-03T12:26:24.611Z,32.50
2018-07-03T12:28:55.482Z,33.80
2018-07-03T12:33:54.786Z,33.80
2018-07-03T12:36:24.511Z,33.90
2018-07-03T12:38:54.952Z,34.40
2018-07-03T12:41:24.703Z,35.50
2018-07-03T12:43:57.295Z,35.20
2018-07-03T12:46:27.610Z,33.60
2018-07-03T12:48:57.327Z,34.60
2018-07-03T12:51:27.071Z,34.20
2018-07-03T12:53:57.130Z,34.60
2018-07-03T12:56:33.141Z,34.40
2018-07-03T12:59:02.810Z,33.90
2018-07-03T13:01:32.519Z,34.80
2018-07-03T13:04:02.228Z,34.20
2018-07-03T13:06:31.939Z,33.70
2018-07-03T13:09:01.611Z,35.30
2018-07-03T13:11:31.299Z,34.60
2018-07-03T13:14:00.979Z,32.90
2018-07-03T13:16:30.675Z,33.80
2018-07-03T13:19:00.691Z,33.70
2018-07-03T13:21:30.423Z,34.50
2018-07-03T13:24:00.215Z,35.10
2018-07-03T13:26:29.936Z,33.30
2018-07-03T13:29:01.410Z,35.10
2018-07-03T13:31:31.345Z,35.50
2018-07-03T13:34:01.248Z,34.50
2018-07-03T13:36:30.983Z,33.50
2018-07-03T13:39:00.887Z,34.70
2018-07-03T13:41:30.622Z,35.40
2018-07-03T13:44:00.357Z,35.50
2018-07-03T13:46:29.970Z,34.80
2018-07-03T13:48:59.712Z,34.30
2018-07-03T13:51:29.251Z,34.50
2018-07-03T13:53:58.970Z,34.60
2018-07-03T13:56:28.410Z,35.60
2018-07-03T13:58:57.788Z,33.10
2018-07-03T14:01:27.206Z,34.10
2018-07-03T14:03:56.631Z,34.60
2018-07-03T14:06:26.391Z,33.40
2018-07-03T14:08:55.797Z,33.70
2018-07-03T14:11:25.576Z,33.40
2018-07-03T14:13:55.321Z,33.90
2018-07-03T14:16:24.747Z,33.10
2018-07-03T14:18:54.144Z,32.90
2018-07-03T14:21:23.927Z,34.00
2018-07-03T14:23:53.323Z,32.70
2018-07-03T14:26:22.777Z,33.20
2018-07-03T14:28:52.195Z,33.70
2018-07-03T14:31:21.635Z,33.90
2018-07-03T14:33:51.350Z,32.50
2018-07-03T14:36:20.868Z,32.30
2018-07-03T14:38:50.390Z,32.40
2018-07-03T14:41:19.818Z,32.90
2018-07-03T14:43:49.212Z,33.50
2018-07-03T14:46:18.639Z,31.70
2018-07-03T14:48:48.048Z,32.60
2018-07-03T14:51:17.492Z,33.40
2018-07-03T14:53:47.295Z,32.70
2018-07-03T14:58:46.048Z,33.70
2018-07-03T15:01:15.471Z,34.40
2018-07-03T15:03:44.964Z,34.40
2018-07-03T15:06:14.375Z,34.80
2018-07-03T15:08:43.830Z,34.00
2018-07-03T15:11:13.255Z,33.80
2018-07-03T15:13:42.767Z,33.00
2018-07-03T15:16:12.183Z,32.00
2018-07-03T15:19:46.635Z,31.30
2018-07-03T15:22:16.696Z,33.30
2018-07-03T15:24:46.147Z,33.50
2018-07-03T15:27:15.893Z,33.90
2018-07-03T15:29:45.710Z,34.50
2018-07-03T15:32:15.163Z,34.80
2018-07-03T15:34:44.599Z,34.90
2018-07-03T15:37:14.371Z,33.70
2018-07-03T15:39:44.106Z,34.10
2018-07-03T15:42:13.720Z,32.60
2018-07-03T15:44:54.651Z,33.40
2018-07-03T15:47:24.087Z,32.10
2018-07-03T15:49:53.844Z,33.10
2018-07-03T15:52:23.291Z,34.30
2018-07-03T15:54:53.024Z,34.90
2018-07-03T15:57:22.738Z,34.00
2018-07-03T16:02:22.953Z,33.60
2018-07-03T16:05:04.557Z,33.10
2018-07-03T16:07:47.791Z,33.50
2018-07-03T16:10:17.255Z,32.70
2018-07-03T16:12:46.663Z,33.00
2018-07-03T16:15:18.036Z,32.40
2018-07-03T16:17:47.552Z,31.80
2018-07-03T16:20:22.171Z,31.40
2018-07-03T16:22:53.803Z,31.10
2018-07-03T16:25:24.133Z,31.10
2018-07-03T16:27:54.014Z,31.30
2018-07-03T16:30:23.435Z,31.50
2018-07-03T16:32:52.870Z,32.40
2018-07-03T16:35:24.703Z,32.40
2018-07-03T16:37:54.135Z,31.80
2018-07-03T16:40:30.355Z,31.10
2018-07-03T16:42:59.859Z,32.70
2018-07-03T16:45:37.510Z,33.50
2018-07-03T16:48:08.076Z,34.50
2018-07-03T16:50:37.505Z,33.20
2018-07-03T16:53:07.294Z,33.70
2018-07-03T16:55:36.967Z,34.50
2018-07-03T16:58:06.786Z,33.70
2018-07-03T17:00:37.779Z,35.20
2018-07-03T17:03:07.550Z,33.80
2018-07-03T17:05:37.234Z,35.10
2018-07-03T17:08:06.953Z,34.70
2018-07-03T17:10:37.255Z,33.90
2018-07-03T17:13:06.926Z,35.90
2018-07-03T17:15:36.571Z,33.80
2018-07-03T17:18:06.255Z,34.40
2018-07-03T17:20:35.988Z,35.50
2018-07-03T17:23:05.878Z,35.70
2018-07-03T17:25:42.055Z,35.60
2018-07-03T17:28:12.379Z,35.80
2018-07-03T17:30:42.291Z,36.50
2018-07-03T17:33:11.950Z,36.00
2018-07-03T17:35:42.608Z,37.10
2018-07-03T17:38:12.273Z,36.00
2018-07-03T17:40:53.123Z,35.50
2018-07-03T17:43:35.820Z,36.10
2018-07-03T17:46:12.031Z,34.90
2018-07-03T17:48:41.715Z,35.70
2018-07-03T17:51:11.358Z,34.70
2018-07-03T17:53:41.187Z,34.70
2018-07-03T17:56:10.879Z,34.50
2018-07-03T17:58:42.087Z,35.40
2018-07-03T18:01:11.831Z,34.60
2018-07-03T18:03:42.681Z,35.20
2018-07-03T18:06:12.415Z,34.50
2018-07-03T18:08:42.694Z,35.50
2018-07-03T18:11:12.455Z,36.20
2018-07-03T18:13:43.190Z,36.20
2018-07-03T18:16:14.121Z,38.70
2018-07-03T18:18:44.348Z,38.20
2018-07-03T18:21:14.125Z,37.20
2018-07-03T18:23:47.047Z,36.60
2018-07-03T18:26:24.692Z,36.20
2018-07-03T18:28:54.451Z,36.70
2018-07-03T18:31:27.209Z,39.70
2018-07-03T18:33:58.925Z,39.80
2018-07-03T18:36:28.650Z,40.00
2018-07-03T18:39:02.851Z,38.90
2018-07-03T18:41:32.705Z,40.80
2018-07-03T18:44:02.407Z,39.20
2018-07-03T18:46:32.164Z,40.60
2018-07-03T18:49:01.895Z,39.90
2018-07-03T18:51:31.632Z,42.40
2018-07-03T18:54:01.686Z,45.10
2018-07-03T18:56:31.399Z,44.40
2018-07-03T18:59:01.082Z,44.80
2018-07-03T19:01:32.386Z,44.40
2018-07-03T19:04:02.219Z,44.80
2018-07-03T19:06:33.190Z,47.80
2018-07-03T19:09:04.962Z,49.80
2018-07-03T19:11:35.217Z,51.50
2018-07-03T19:14:04.897Z,50.90
2018-07-03T19:16:38.207Z,51.50
2018-07-03T19:19:07.971Z,52.10
2018-07-03T19:21:37.951Z,53.50
2018-07-03T19:24:08.124Z,53.80
2018-07-03T19:26:38.250Z,53.60
2018-07-03T19:29:08.069Z,51.60
2018-07-03T19:31:37.811Z,53.00
2018-07-03T19:34:10.369Z,54.60
2018-07-03T19:36:43.137Z,55.10
2018-07-03T19:39:20.425Z,55.70
2018-07-03T19:41:50.984Z,57.00
2018-07-03T19:44:20.663Z,56.00
2018-07-03T19:46:50.986Z,56.90
2018-07-03T19:49:22.060Z,57.60
2018-07-03T19:51:54.947Z,58.40
2018-07-03T19:54:24.693Z,59.10
2018-07-03T19:56:54.593Z,59.80
2018-07-03T19:59:29.365Z,60.80
2018-07-03T20:01:59.486Z,60.70
2018-07-03T20:04:34.384Z,61.60
2018-07-03T20:07:04.945Z,62.70
2018-07-03T20:09:35.031Z,62.50
2018-07-03T20:12:04.804Z,63.20
2018-07-03T20:14:34.513Z,63.70
2018-07-03T20:19:38.035Z,63.80
2018-07-03T20:22:08.139Z,64.40
2018-07-03T20:24:37.901Z,64.60
2018-07-03T20:27:07.683Z,64.10
2018-07-03T20:29:37.424Z,65.00
2018-07-03T20:32:07.558Z,65.40
2018-07-03T20:34:40.090Z,61.20
2018-07-03T20:37:11.065Z,56.80
2018-07-03T20:39:42.823Z,58.50
2018-07-03T20:42:12.543Z,60.60
2018-07-03T20:44:42.317Z,61.40
2018-07-03T20:47:12.038Z,62.80
2018-07-03T20:49:41.804Z,63.30
2018-07-03T20:52:11.718Z,64.10
2018-07-03T20:54:41.431Z,63.50
2018-07-03T20:57:11.162Z,65.00
2018-07-03T20:59:40.888Z,65.00
2018-07-03T21:02:10.712Z,64.30
2018-07-03T21:04:40.475Z,64.90
2018-07-03T21:07:10.338Z,66.40
2018-07-03T21:09:40.063Z,66.80
2018-07-03T21:12:09.777Z,66.70
2018-07-03T21:14:39.511Z,67.10
2018-07-03T21:17:09.463Z,66.90
2018-07-03T21:19:39.160Z,66.90
2018-07-03T21:22:08.888Z,66.60
2018-07-03T21:24:38.853Z,66.30
2018-07-03T21:27:09.283Z,66.80
2018-07-03T21:29:39.324Z,67.00
2018-07-03T21:32:09.127Z,63.50
2018-07-03T21:34:38.991Z,62.70
2018-07-03T21:37:08.748Z,61.50
2018-07-03T21:39:38.447Z,63.50
2018-07-03T21:42:08.179Z,65.30
2018-07-03T21:44:37.875Z,65.70
2018-07-03T21:47:07.599Z,64.90
2018-07-03T21:49:37.307Z,66.30
2018-07-03T21:52:07.060Z,65.80
2018-07-03T21:54:36.815Z,66.00
2018-07-03T21:57:06.570Z,66.90
2018-07-03T21:59:36.268Z,67.40
2018-07-03T22:02:06.375Z,67.70
2018-07-03T22:04:36.459Z,67.30
2018-07-03T22:07:06.208Z,66.40
2018-07-03T22:09:35.927Z,67.10
2018-07-03T22:12:05.644Z,65.20
2018-07-03T22:14:37.543Z,65.90
2018-07-03T22:17:07.736Z,64.90
2018-07-03T22:19:37.418Z,64.40
2018-07-03T22:22:07.179Z,65.20
2018-07-03T22:24:37.103Z,64.80
2018-07-03T22:27:06.805Z,66.50
2018-07-03T22:29:36.493Z,67.60
2018-07-03T22:32:06.226Z,68.20
2018-07-03T22:34:35.984Z,68.70
2018-07-03T22:37:05.712Z,69.00
2018-07-03T22:39:35.424Z,69.40
2018-07-03T22:42:05.738Z,69.40
2018-07-03T22:44:35.451Z,68.10
2018-07-03T22:47:05.362Z,68.50
2018-07-03T22:49:35.098Z,69.60
2018-07-03T22:52:04.818Z,70.10
2018-07-03T22:54:34.567Z,70.40
2018-07-03T22:57:04.315Z,70.40
2018-07-03T22:59:33.994Z,70.20
2018-07-03T23:02:03.743Z,70.00
2018-07-03T23:04:33.808Z,70.40
2018-07-03T23:07:03.512Z,68.70
2018-07-03T23:09:33.221Z,69.30
2018-07-03T23:12:02.910Z,69.70
2018-07-03T23:14:32.615Z,70.30
2018-07-03T23:17:02.311Z,70.10
2018-07-03T23:19:32.419Z,70.70
2018-07-03T23:22:02.130Z,70.60
2018-07-03T23:24:31.838Z,70.70
2018-07-03T23:27:01.592Z,71.80
2018-07-03T23:29:31.267Z,70.80
2018-07-03T23:32:00.924Z,71.60
2018-07-03T23:34:30.600Z,71.60
2018-07-03T23:37:00.265Z,70.70
2018-07-03T23:39:30.070Z,71.00
2018-07-03T23:41:59.768Z,71.90
2018-07-03T23:44:29.477Z,72.10
2018-07-03T23:47:10.309Z,72.60
2018-07-03T23:49:51.271Z,72.90
2018-07-03T23:52:32.043Z,73.20
2018-07-03T23:55:13.127Z,72.80
2018-07-03T23:57:53.950Z,72.60
